sensor_id;sensor_type;location;lat;lon;timestamp;pressure;altitude;pressure_sealevel;temperature;humidity
49627;BME280;35527;54.616;39.786;2023-03-03T00:01:07;98678.56;;;1.54;97.72
49627;BME280;35527;54.616;39.786;2023-03-03T00:04:10;98664.22;;;1.48;96.64
49627;BME280;35527;54.616;39.786;2023-03-03T00:07:39;98658.34;;;1.46;96.76
49627;BME280;35527;54.616;39.786;2023-03-03T00:10:42;98663.94;;;1.62;96.11
49627;BME280;35527;54.616;39.786;2023-03-03T00:13:52;98655.47;;;1.62;95.50
49627;BME280;35527;54.616;39.786;2023-03-03T00:17:00;98651.47;;;1.48;96.33
49627;BME280;35527;54.616;39.786;2023-03-03T00:23:31;98655.59;;;1.54;96.18
49627;BME280;35527;54.616;39.786;2023-03-03T00:26:41;98642.00;;;1.55;97.26
49627;BME280;35527;54.616;39.786;2023-03-03T00:29:55;98628.09;;;1.70;96.17
49627;BME280;35527;54.616;39.786;2023-03-03T00:32:58;98627.53;;;1.55;95.94
49627;BME280;35527;54.616;39.786;2023-03-03T00:39:52;98643.53;;;1.62;98.14
49627;BME280;35527;54.616;39.786;2023-03-03T00:42:57;98640.28;;;1.55;98.08
49627;BME280;35527;54.616;39.786;2023-03-03T00:46:03;98606.69;;;1.38;98.43
49627;BME280;35527;54.616;39.786;2023-03-03T00:49:18;98630.03;;;1.96;98.01
49627;BME280;35527;54.616;39.786;2023-03-03T00:52:26;98605.44;;;1.16;100.00
49627;BME280;35527;54.616;39.786;2023-03-03T00:55:33;98620.75;;;0.71;100.00
49627;BME280;35527;54.616;39.786;2023-03-03T00:58:36;98612.56;;;0.05;100.00
49627;BME280;35527;54.616;39.786;2023-03-03T01:01:40;98617.56;;;0.10;100.00
49627;BME280;35527;54.616;39.786;2023-03-03T01:04:49;98588.94;;;-0.02;100.00
49627;BME280;35527;54.616;39.786;2023-03-03T01:07:52;98599.72;;;0.13;100.00
49627;BME280;35527;54.616;39.786;2023-03-03T01:10:58;98597.19;;;0.11;100.00
49627;BME280;35527;54.616;39.786;2023-03-03T01:14:02;98588.81;;;0.06;100.00
49627;BME280;35527;54.616;39.786;2023-03-03T01:17:07;98586.19;;;0.11;100.00
49627;BME280;35527;54.616;39.786;2023-03-03T01:20:20;98584.72;;;-0.04;100.00
49627;BME280;35527;54.616;39.786;2023-03-03T01:23:23;98584.09;;;-0.18;100.00
49627;BME280;35527;54.616;39.786;2023-03-03T01:26:26;98564.75;;;-0.27;100.00
49627;BME280;35527;54.616;39.786;2023-03-03T01:29:31;98592.47;;;-0.12;100.00
49627;BME280;35527;54.616;39.786;2023-03-03T01:32:35;98585.72;;;-0.11;100.00
49627;BME280;35527;54.616;39.786;2023-03-03T01:35:43;98575.34;;;-0.01;100.00
49627;BME280;35527;54.616;39.786;2023-03-03T01:38:50;98579.59;;;-0.01;100.00
49627;BME280;35527;54.616;39.786;2023-03-03T01:41:56;98556.97;;;-0.18;100.00
49627;BME280;35527;54.616;39.786;2023-03-03T01:48:43;98579.69;;;-0.07;100.00
49627;BME280;35527;54.616;39.786;2023-03-03T01:52:01;98573.34;;;0.17;100.00
49627;BME280;35527;54.616;39.786;2023-03-03T01:55:16;98555.75;;;0.06;100.00
49627;BME280;35527;54.616;39.786;2023-03-03T01:58:50;98582.38;;;0.35;100.00
49627;BME280;35527;54.616;39.786;2023-03-03T02:01:55;98584.53;;;0.08;100.00
49627;BME280;35527;54.616;39.786;2023-03-03T02:04:58;98564.59;;;-0.18;100.00
49627;BME280;35527;54.616;39.786;2023-03-03T02:08:02;98569.09;;;0.19;100.00
49627;BME280;35527;54.616;39.786;2023-03-03T02:11:10;98555.66;;;0.11;100.00
49627;BME280;35527;54.616;39.786;2023-03-03T02:14:20;98558.91;;;0.20;100.00
49627;BME280;35527;54.616;39.786;2023-03-03T02:17:24;98542.16;;;0.06;100.00
49627;BME280;35527;54.616;39.786;2023-03-03T02:21:11;98562.81;;;0.37;100.00
49627;BME280;35527;54.616;39.786;2023-03-03T02:24:44;98549.38;;;0.32;100.00
49627;BME280;35527;54.616;39.786;2023-03-03T02:27:50;98524.38;;;0.06;100.00
49627;BME280;35527;54.616;39.786;2023-03-03T02:30:55;98523.28;;;0.20;100.00
49627;BME280;35527;54.616;39.786;2023-03-03T02:33:59;98525.19;;;0.09;100.00
49627;BME280;35527;54.616;39.786;2023-03-03T02:37:04;98546.31;;;0.11;100.00
49627;BME280;35527;54.616;39.786;2023-03-03T02:40:08;98532.50;;;0.26;100.00
49627;BME280;35527;54.616;39.786;2023-03-03T02:43:20;98518.72;;;0.38;100.00
49627;BME280;35527;54.616;39.786;2023-03-03T02:46:26;98531.44;;;0.36;100.00
49627;BME280;35527;54.616;39.786;2023-03-03T02:49:32;98529.53;;;0.48;100.00
49627;BME280;35527;54.616;39.786;2023-03-03T02:52:38;98537.88;;;0.57;100.00
49627;BME280;35527;54.616;39.786;2023-03-03T02:55:44;98542.91;;;0.59;100.00
49627;BME280;35527;54.616;39.786;2023-03-03T02:58:51;98544.22;;;0.35;100.00
49627;BME280;35527;54.616;39.786;2023-03-03T03:01:55;98544.16;;;0.38;100.00
49627;BME280;35527;54.616;39.786;2023-03-03T03:04:58;98526.41;;;0.35;100.00
49627;BME280;35527;54.616;39.786;2023-03-03T03:08:02;98547.41;;;0.44;100.00
49627;BME280;35527;54.616;39.786;2023-03-03T03:11:33;98533.19;;;0.34;100.00
49627;BME280;35527;54.616;39.786;2023-03-03T03:14:38;98537.16;;;0.49;100.00
49627;BME280;35527;54.616;39.786;2023-03-03T03:17:45;98536.84;;;0.64;100.00
49627;BME280;35527;54.616;39.786;2023-03-03T03:20:50;98530.78;;;0.72;100.00
49627;BME280;35527;54.616;39.786;2023-03-03T03:23:53;98497.78;;;0.67;100.00
49627;BME280;35527;54.616;39.786;2023-03-03T03:26:57;98523.84;;;0.78;100.00
49627;BME280;35527;54.616;39.786;2023-03-03T03:30:02;98520.69;;;0.67;100.00
49627;BME280;35527;54.616;39.786;2023-03-03T03:33:07;98523.28;;;0.64;100.00
49627;BME280;35527;54.616;39.786;2023-03-03T03:36:12;98504.50;;;0.70;100.00
49627;BME280;35527;54.616;39.786;2023-03-03T03:39:16;98518.91;;;0.72;100.00
49627;BME280;35527;54.616;39.786;2023-03-03T03:42:24;98504.25;;;0.82;100.00
49627;BME280;35527;54.616;39.786;2023-03-03T03:45:28;98505.44;;;0.65;100.00
49627;BME280;35527;54.616;39.786;2023-03-03T03:48:31;98513.13;;;1.03;100.00
49627;BME280;35527;54.616;39.786;2023-03-03T03:51:36;98510.44;;;0.70;100.00
49627;BME280;35527;54.616;39.786;2023-03-03T03:54:47;98498.97;;;1.30;100.00
49627;BME280;35527;54.616;39.786;2023-03-03T03:58:17;98476.41;;;0.74;100.00
49627;BME280;35527;54.616;39.786;2023-03-03T04:01:26;98471.19;;;0.80;100.00
49627;BME280;35527;54.616;39.786;2023-03-03T04:04:32;98494.38;;;1.07;100.00
49627;BME280;35527;54.616;39.786;2023-03-03T04:07:36;98493.34;;;1.51;100.00
49627;BME280;35527;54.616;39.786;2023-03-03T04:10:43;98474.16;;;1.01;100.00
49627;BME280;35527;54.616;39.786;2023-03-03T04:13:49;98487.41;;;1.15;100.00
49627;BME280;35527;54.616;39.786;2023-03-03T04:16:55;98487.81;;;0.97;100.00
49627;BME280;35527;54.616;39.786;2023-03-03T04:20:02;98475.19;;;0.90;100.00
49627;BME280;35527;54.616;39.786;2023-03-03T04:23:10;98480.94;;;1.00;100.00
49627;BME280;35527;54.616;39.786;2023-03-03T04:26:12;98465.16;;;1.23;100.00
49627;BME280;35527;54.616;39.786;2023-03-03T04:29:20;98466.16;;;1.16;100.00
49627;BME280;35527;54.616;39.786;2023-03-03T04:32:23;98468.84;;;1.08;100.00
49627;BME280;35527;54.616;39.786;2023-03-03T04:35:32;98459.03;;;1.30;100.00
49627;BME280;35527;54.616;39.786;2023-03-03T04:38:39;98463.88;;;1.40;100.00
49627;BME280;35527;54.616;39.786;2023-03-03T04:41:45;98458.47;;;1.53;100.00
49627;BME280;35527;54.616;39.786;2023-03-03T04:45:02;98472.03;;;1.54;100.00
49627;BME280;35527;54.616;39.786;2023-03-03T04:48:09;98478.09;;;1.84;100.00
49627;BME280;35527;54.616;39.786;2023-03-03T04:51:12;98469.19;;;2.00;100.00
49627;BME280;35527;54.616;39.786;2023-03-03T04:54:16;98468.94;;;2.10;100.00
49627;BME280;35527;54.616;39.786;2023-03-03T04:57:19;98448.91;;;1.94;100.00
49627;BME280;35527;54.616;39.786;2023-03-03T05:00:23;98442.03;;;1.98;100.00
49627;BME280;35527;54.616;39.786;2023-03-03T05:03:27;98459.41;;;2.16;100.00
49627;BME280;35527;54.616;39.786;2023-03-03T05:06:31;98460.88;;;2.25;100.00
49627;BME280;35527;54.616;39.786;2023-03-03T05:09:34;98469.25;;;1.97;100.00
49627;BME280;35527;54.616;39.786;2023-03-03T05:12:36;98454.22;;;2.19;100.00
49627;BME280;35527;54.616;39.786;2023-03-03T05:15:42;98469.91;;;2.37;100.00
49627;BME280;35527;54.616;39.786;2023-03-03T05:18:46;98452.56;;;2.18;100.00
49627;BME280;35527;54.616;39.786;2023-03-03T05:21:49;98446.63;;;2.16;100.00
49627;BME280;35527;54.616;39.786;2023-03-03T05:25:18;98444.66;;;2.26;100.00
49627;BME280;35527;54.616;39.786;2023-03-03T05:28:22;98458.13;;;2.33;100.00
49627;BME280;35527;54.616;39.786;2023-03-03T05:31:32;98470.63;;;2.42;100.00
49627;BME280;35527;54.616;39.786;2023-03-03T05:34:35;98450.53;;;2.30;100.00
49627;BME280;35527;54.616;39.786;2023-03-03T05:37:41;98429.69;;;2.45;100.00
49627;BME280;35527;54.616;39.786;2023-03-03T05:40:52;98449.75;;;2.57;99.20
49627;BME280;35527;54.616;39.786;2023-03-03T05:43:59;98432.63;;;2.61;99.14
49627;BME280;35527;54.616;39.786;2023-03-03T05:47:02;98449.06;;;2.52;98.39
49627;BME280;35527;54.616;39.786;2023-03-03T05:50:07;98445.50;;;2.58;99.00
49627;BME280;35527;54.616;39.786;2023-03-03T05:53:12;98440.47;;;2.83;98.48
49627;BME280;35527;54.616;39.786;2023-03-03T05:56:27;98442.72;;;2.93;97.43
49627;BME280;35527;54.616;39.786;2023-03-03T05:59:30;98457.84;;;3.01;96.84
49627;BME280;35527;54.616;39.786;2023-03-03T06:02:35;98457.13;;;2.96;96.13
49627;BME280;35527;54.616;39.786;2023-03-03T06:05:39;98454.38;;;3.02;95.68
49627;BME280;35527;54.616;39.786;2023-03-03T06:08:45;98435.66;;;3.02;95.48
49627;BME280;35527;54.616;39.786;2023-03-03T06:11:48;98438.56;;;3.17;94.87
49627;BME280;35527;54.616;39.786;2023-03-03T06:14:52;98446.59;;;3.33;94.06
49627;BME280;35527;54.616;39.786;2023-03-03T06:17:56;98441.75;;;3.77;90.92
49627;BME280;35527;54.616;39.786;2023-03-03T06:21:00;98423.47;;;4.13;88.91
49627;BME280;35527;54.616;39.786;2023-03-03T06:24:03;98420.59;;;3.97;85.78
49627;BME280;35527;54.616;39.786;2023-03-03T06:27:09;98441.59;;;3.82;86.87
49627;BME280;35527;54.616;39.786;2023-03-03T06:30:12;98441.56;;;3.57;89.23
49627;BME280;35527;54.616;39.786;2023-03-03T06:33:19;98429.50;;;3.60;90.42
49627;BME280;35527;54.616;39.786;2023-03-03T06:36:22;98443.75;;;3.69;91.07
49627;BME280;35527;54.616;39.786;2023-03-03T06:39:26;98421.75;;;3.37;92.08
49627;BME280;35527;54.616;39.786;2023-03-03T06:42:30;98435.09;;;3.47;92.27
49627;BME280;35527;54.616;39.786;2023-03-03T06:45:34;98438.72;;;3.39;92.31
49627;BME280;35527;54.616;39.786;2023-03-03T06:48:37;98448.63;;;3.50;92.94
49627;BME280;35527;54.616;39.786;2023-03-03T06:51:42;98438.22;;;3.28;94.16
49627;BME280;35527;54.616;39.786;2023-03-03T06:54:48;98429.59;;;3.32;94.86
49627;BME280;35527;54.616;39.786;2023-03-03T06:57:51;98428.69;;;3.33;94.76
49627;BME280;35527;54.616;39.786;2023-03-03T07:01:00;98428.69;;;3.60;94.41
49627;BME280;35527;54.616;39.786;2023-03-03T07:04:32;98432.41;;;3.76;93.25
49627;BME280;35527;54.616;39.786;2023-03-03T07:07:36;98436.00;;;3.96;91.37
49627;BME280;35527;54.616;39.786;2023-03-03T07:10:40;98419.81;;;3.95;88.32
49627;BME280;35527;54.616;39.786;2023-03-03T07:13:48;98437.31;;;4.07;86.94
49627;BME280;35527;54.616;39.786;2023-03-03T07:16:57;98434.09;;;4.26;85.46
49627;BME280;35527;54.616;39.786;2023-03-03T07:20:17;98414.72;;;4.42;80.68
49627;BME280;35527;54.616;39.786;2023-03-03T07:23:25;98425.53;;;4.27;78.21
49627;BME280;35527;54.616;39.786;2023-03-03T07:26:30;98423.19;;;4.44;77.85
49627;BME280;35527;54.616;39.786;2023-03-03T07:29:38;98406.28;;;4.62;74.87
49627;BME280;35527;54.616;39.786;2023-03-03T07:32:52;98381.72;;;5.23;70.89
49627;BME280;35527;54.616;39.786;2023-03-03T07:35:57;98396.44;;;5.17;68.24
49627;BME280;35527;54.616;39.786;2023-03-03T07:42:40;98400.03;;;5.56;65.31
49627;BME280;35527;54.616;39.786;2023-03-03T07:46:02;98397.22;;;5.41;64.18
49627;BME280;35527;54.616;39.786;2023-03-03T07:52:59;98410.63;;;5.26;64.56
49627;BME280;35527;54.616;39.786;2023-03-03T07:56:26;98399.25;;;5.11;63.52
49627;BME280;35527;54.616;39.786;2023-03-03T07:59:29;98413.09;;;4.40;64.48
49627;BME280;35527;54.616;39.786;2023-03-03T08:02:43;98440.03;;;4.73;65.49
49627;BME280;35527;54.616;39.786;2023-03-03T08:05:49;98413.31;;;4.57;64.53
49627;BME280;35527;54.616;39.786;2023-03-03T08:12:30;98436.88;;;4.89;63.51
49627;BME280;35527;54.616;39.786;2023-03-03T08:15:36;98417.50;;;4.60;63.29
49627;BME280;35527;54.616;39.786;2023-03-03T08:18:43;98426.69;;;4.65;62.72
49627;BME280;35527;54.616;39.786;2023-03-03T08:21:58;98415.28;;;4.50;63.38
49627;BME280;35527;54.616;39.786;2023-03-03T08:25:03;98410.28;;;4.24;63.62
49627;BME280;35527;54.616;39.786;2023-03-03T08:28:09;98440.22;;;4.22;63.62
49627;BME280;35527;54.616;39.786;2023-03-03T08:31:12;98429.38;;;4.39;63.79
49627;BME280;35527;54.616;39.786;2023-03-03T08:34:31;98421.16;;;4.29;62.68
49627;BME280;35527;54.616;39.786;2023-03-03T08:37:34;98428.19;;;4.47;62.48
49627;BME280;35527;54.616;39.786;2023-03-03T08:40:45;98435.81;;;4.49;62.32
49627;BME280;35527;54.616;39.786;2023-03-03T08:43:48;98433.59;;;4.40;62.76
49627;BME280;35527;54.616;39.786;2023-03-03T08:46:53;98427.69;;;4.61;62.46
49627;BME280;35527;54.616;39.786;2023-03-03T08:49:57;98430.16;;;4.41;62.72
49627;BME280;35527;54.616;39.786;2023-03-03T08:53:01;98378.91;;;4.17;62.68
49627;BME280;35527;54.616;39.786;2023-03-03T08:56:04;98409.94;;;4.33;62.36
49627;BME280;35527;54.616;39.786;2023-03-03T08:59:09;98380.69;;;3.92;62.92
49627;BME280;35527;54.616;39.786;2023-03-03T09:02:18;98442.00;;;3.95;63.92
49627;BME280;35527;54.616;39.786;2023-03-03T09:05:23;98437.81;;;4.17;63.71
49627;BME280;35527;54.616;39.786;2023-03-03T09:08:28;98449.16;;;4.35;63.79
49627;BME280;35527;54.616;39.786;2023-03-03T09:11:36;98406.09;;;5.12;61.98
49627;BME280;35527;54.616;39.786;2023-03-03T09:14:42;98438.94;;;5.67;59.09
49627;BME280;35527;54.616;39.786;2023-03-03T09:17:48;98447.03;;;5.78;58.94
49627;BME280;35527;54.616;39.786;2023-03-03T09:20:52;98432.59;;;5.33;59.62
49627;BME280;35527;54.616;39.786;2023-03-03T09:23:58;98436.66;;;4.95;61.55
49627;BME280;35527;54.616;39.786;2023-03-03T09:27:33;98421.34;;;4.93;62.23
49627;BME280;35527;54.616;39.786;2023-03-03T09:30:39;98443.03;;;4.85;62.61
49627;BME280;35527;54.616;39.786;2023-03-03T09:33:46;98430.25;;;4.38;64.23
49627;BME280;35527;54.616;39.786;2023-03-03T09:36:54;98423.94;;;4.23;65.28
49627;BME280;35527;54.616;39.786;2023-03-03T09:39:57;98438.84;;;4.12;66.16
49627;BME280;35527;54.616;39.786;2023-03-03T09:43:05;98419.31;;;4.09;66.84
49627;BME280;35527;54.616;39.786;2023-03-03T09:46:33;98440.78;;;4.30;66.73
49627;BME280;35527;54.616;39.786;2023-03-03T09:49:44;98446.16;;;4.22;67.21
49627;BME280;35527;54.616;39.786;2023-03-03T09:56:34;98417.84;;;4.03;67.03
49627;BME280;35527;54.616;39.786;2023-03-03T10:00:15;98449.25;;;4.32;66.53
49627;BME280;35527;54.616;39.786;2023-03-03T10:21:04;98372.16;;;3.68;66.00
49627;BME280;35527;54.616;39.786;2023-03-03T10:27:23;98435.00;;;3.75;66.91
49627;BME280;35527;54.616;39.786;2023-03-03T10:58:25;98447.91;;;3.97;67.83
49627;BME280;35527;54.616;39.786;2023-03-03T11:01:56;98454.50;;;4.04;68.14
49627;BME280;35527;54.616;39.786;2023-03-03T11:05:17;98403.78;;;3.90;68.18
49627;BME280;35527;54.616;39.786;2023-03-03T11:09:16;98436.38;;;4.57;65.38
49627;BME280;35527;54.616;39.786;2023-03-03T11:23:26;98473.41;;;4.48;63.25
49627;BME280;35527;54.616;39.786;2023-03-03T11:41:28;98488.34;;;5.06;61.92
49627;BME280;35527;54.616;39.786;2023-03-03T11:44:37;98475.56;;;4.83;62.73
49627;BME280;35527;54.616;39.786;2023-03-03T11:48:06;98417.41;;;4.39;62.62
49627;BME280;35527;54.616;39.786;2023-03-03T11:55:00;98468.84;;;4.57;63.04
49627;BME280;35527;54.616;39.786;2023-03-03T12:01:22;98472.44;;;4.74;62.61
49627;BME280;35527;54.616;39.786;2023-03-03T12:04:33;98483.75;;;4.69;62.89
49627;BME280;35527;54.616;39.786;2023-03-03T12:07:48;98486.09;;;5.20;62.48
49627;BME280;35527;54.616;39.786;2023-03-03T12:11:24;98483.13;;;5.53;60.17
49627;BME280;35527;54.616;39.786;2023-03-03T12:21:33;98450.31;;;5.17;59.86
49627;BME280;35527;54.616;39.786;2023-03-03T12:35:10;98485.97;;;5.02;59.98
49627;BME280;35527;54.616;39.786;2023-03-03T12:39:11;98445.63;;;5.07;59.28
49627;BME280;35527;54.616;39.786;2023-03-03T12:46:58;98474.94;;;5.00;59.61
49627;BME280;35527;54.616;39.786;2023-03-03T12:50:18;98486.00;;;4.78;60.43
49627;BME280;35527;54.616;39.786;2023-03-03T12:57:03;98494.47;;;4.57;60.44
49627;BME280;35527;54.616;39.786;2023-03-03T13:00:27;98491.41;;;4.47;61.17
49627;BME280;35527;54.616;39.786;2023-03-03T13:04:02;98471.28;;;4.60;59.99
49627;BME280;35527;54.616;39.786;2023-03-03T13:11:04;98485.38;;;4.71;59.65
49627;BME280;35527;54.616;39.786;2023-03-03T13:17:29;98490.56;;;4.93;59.54
49627;BME280;35527;54.616;39.786;2023-03-03T13:20:41;98484.41;;;4.97;58.94
49627;BME280;35527;54.616;39.786;2023-03-03T13:23:54;98475.97;;;4.95;59.01
49627;BME280;35527;54.616;39.786;2023-03-03T13:27:14;98454.72;;;4.92;58.43
49627;BME280;35527;54.616;39.786;2023-03-03T13:30:33;98489.00;;;5.11;58.63
49627;BME280;35527;54.616;39.786;2023-03-03T13:33:51;98465.81;;;5.14;57.52
49627;BME280;35527;54.616;39.786;2023-03-03T13:37:32;98472.09;;;5.07;57.31
49627;BME280;35527;54.616;39.786;2023-03-03T13:40:43;98461.44;;;4.94;57.53
49627;BME280;35527;54.616;39.786;2023-03-03T13:53:56;98459.75;;;4.71;57.21
49627;BME280;35527;54.616;39.786;2023-03-03T13:57:36;98484.75;;;4.88;57.13
49627;BME280;35527;54.616;39.786;2023-03-03T14:01:16;98477.75;;;4.93;56.99
49627;BME280;35527;54.616;39.786;2023-03-03T14:07:44;98476.97;;;5.13;56.32
49627;BME280;35527;54.616;39.786;2023-03-03T14:11:10;98476.94;;;4.91;55.94
49627;BME280;35527;54.616;39.786;2023-03-03T14:14:50;98467.13;;;4.57;56.71
49627;BME280;35527;54.616;39.786;2023-03-03T14:21:28;98458.94;;;4.24;56.76
49627;BME280;35527;54.616;39.786;2023-03-03T14:28:11;98474.44;;;3.94;56.67
49627;BME280;35527;54.616;39.786;2023-03-03T14:31:55;98471.63;;;4.02;58.13
49627;BME280;35527;54.616;39.786;2023-03-03T14:35:00;98440.03;;;3.78;59.30
49627;BME280;35527;54.616;39.786;2023-03-03T14:38:23;98454.13;;;3.65;60.20
49627;BME280;35527;54.616;39.786;2023-03-03T14:41:40;98473.47;;;3.72;61.11
49627;BME280;35527;54.616;39.786;2023-03-03T14:44:52;98484.47;;;3.75;62.49
49627;BME280;35527;54.616;39.786;2023-03-03T14:47:56;98470.22;;;3.42;63.56
49627;BME280;35527;54.616;39.786;2023-03-03T14:54:49;98462.34;;;3.21;65.27
49627;BME280;35527;54.616;39.786;2023-03-03T14:57:52;98479.31;;;3.50;65.24
49627;BME280;35527;54.616;39.786;2023-03-03T15:01:34;98463.88;;;3.53;65.81
49627;BME280;35527;54.616;39.786;2023-03-03T15:04:38;98497.50;;;3.13;76.45
49627;BME280;35527;54.616;39.786;2023-03-03T15:07:43;98506.97;;;2.81;88.16
49627;BME280;35527;54.616;39.786;2023-03-03T15:10:49;98514.28;;;2.64;94.87
49627;BME280;35527;54.616;39.786;2023-03-03T15:13:52;98528.22;;;2.52;98.88
49627;BME280;35527;54.616;39.786;2023-03-03T15:20:45;98524.41;;;2.36;100.00
49627;BME280;35527;54.616;39.786;2023-03-03T15:24:02;98524.13;;;2.46;100.00
49627;BME280;35527;54.616;39.786;2023-03-03T15:27:21;98542.59;;;2.55;100.00
49627;BME280;35527;54.616;39.786;2023-03-03T15:30:47;98537.56;;;2.53;100.00
49627;BME280;35527;54.616;39.786;2023-03-03T15:40:48;98537.56;;;2.53;100.00
49627;BME280;35527;54.616;39.786;2023-03-03T15:45:02;98524.88;;;2.50;100.00
49627;BME280;35527;54.616;39.786;2023-03-03T15:47:58;98538.38;;;2.54;100.00
49627;BME280;35527;54.616;39.786;2023-03-03T16:05:25;98555.31;;;2.58;100.00
49627;BME280;35527;54.616;39.786;2023-03-03T16:08:59;98560.63;;;2.50;100.00
49627;BME280;35527;54.616;39.786;2023-03-03T16:19:05;98538.84;;;2.68;100.00
49627;BME280;35527;54.616;39.786;2023-03-03T16:22:48;98548.34;;;2.63;100.00
49627;BME280;35527;54.616;39.786;2023-03-03T16:26:14;98547.00;;;2.50;100.00
49627;BME280;35527;54.616;39.786;2023-03-03T16:29:45;98531.09;;;2.40;100.00
49627;BME280;35527;54.616;39.786;2023-03-03T16:42:44;98545.81;;;2.30;100.00
49627;BME280;35527;54.616;39.786;2023-03-03T16:45:57;98527.59;;;2.44;100.00
49627;BME280;35527;54.616;39.786;2023-03-03T16:49:32;98545.22;;;2.53;100.00
49627;BME280;35527;54.616;39.786;2023-03-03T16:52:47;98538.34;;;2.55;100.00
49627;BME280;35527;54.616;39.786;2023-03-03T16:56:13;98543.31;;;2.60;100.00
49627;BME280;35527;54.616;39.786;2023-03-03T17:06:18;98537.38;;;2.59;100.00
49627;BME280;35527;54.616;39.786;2023-03-03T17:10:04;98545.66;;;2.67;100.00
49627;BME280;35527;54.616;39.786;2023-03-03T17:24:16;98537.88;;;2.72;100.00
49627;BME280;35527;54.616;39.786;2023-03-03T17:45:24;98531.81;;;2.45;100.00
49627;BME280;35527;54.616;39.786;2023-03-03T17:51:57;98535.81;;;2.54;100.00
49627;BME280;35527;54.616;39.786;2023-03-03T17:55:21;98529.50;;;2.67;100.00
49627;BME280;35527;54.616;39.786;2023-03-03T18:03:27;98523.88;;;2.56;100.00
49627;BME280;35527;54.616;39.786;2023-03-03T18:13:00;98525.22;;;2.36;98.26
49627;BME280;35527;54.616;39.786;2023-03-03T18:16:37;98516.69;;;2.37;97.79
49627;BME280;35527;54.616;39.786;2023-03-03T18:24:12;98528.91;;;2.26;94.38
49627;BME280;35527;54.616;39.786;2023-03-03T18:26:44;98526.41;;;2.23;92.18
49627;BME280;35527;54.616;39.786;2023-03-03T18:33:41;98528.69;;;2.35;88.56
49627;BME280;35527;54.616;39.786;2023-03-03T18:46:46;98533.94;;;2.29;86.44
49627;BME280;35527;54.616;39.786;2023-03-03T18:50:04;98503.03;;;2.07;87.49
49627;BME280;35527;54.616;39.786;2023-03-03T18:53:29;98510.63;;;2.09;87.81
49627;BME280;35527;54.616;39.786;2023-03-03T18:59:55;98528.56;;;2.07;90.72
49627;BME280;35527;54.616;39.786;2023-03-03T19:10:00;98536.44;;;1.98;89.88
49627;BME280;35527;54.616;39.786;2023-03-03T19:16:36;98548.28;;;1.65;91.62
49627;BME280;35527;54.616;39.786;2023-03-03T19:19:59;98539.72;;;1.67;91.84
49627;BME280;35527;54.616;39.786;2023-03-03T19:30:06;98517.31;;;1.44;92.29
49627;BME280;35527;54.616;39.786;2023-03-03T19:56:53;98525.00;;;1.43;89.16
49627;BME280;35527;54.616;39.786;2023-03-03T20:00:05;98523.25;;;1.45;89.22
49627;BME280;35527;54.616;39.786;2023-03-03T20:06:42;98504.41;;;1.15;89.59
49627;BME280;35527;54.616;39.786;2023-03-03T20:13:13;98498.91;;;1.31;91.06
49627;BME280;35527;54.616;39.786;2023-03-03T20:16:34;98496.38;;;1.31;90.84
49627;BME280;35527;54.616;39.786;2023-03-03T20:23:53;98504.28;;;1.19;92.79
49627;BME280;35527;54.616;39.786;2023-03-03T20:37:14;98496.78;;;1.15;95.89
49627;BME280;35527;54.616;39.786;2023-03-03T20:40:30;98480.00;;;1.04;96.24
49627;BME280;35527;54.616;39.786;2023-03-03T20:47:12;98462.19;;;1.03;97.96
49627;BME280;35527;54.616;39.786;2023-03-03T21:00:22;98448.84;;;0.92;100.00
49627;BME280;35527;54.616;39.786;2023-03-03T21:03:35;98481.78;;;1.01;100.00
49627;BME280;35527;54.616;39.786;2023-03-03T21:06:39;98452.34;;;0.89;100.00
49627;BME280;35527;54.616;39.786;2023-03-03T21:09:45;98465.69;;;0.99;100.00
49627;BME280;35527;54.616;39.786;2023-03-03T21:12:51;98456.44;;;1.32;100.00
49627;BME280;35527;54.616;39.786;2023-03-03T21:16:01;98442.91;;;1.28;100.00
49627;BME280;35527;54.616;39.786;2023-03-03T21:19:10;98434.44;;;1.28;100.00
49627;BME280;35527;54.616;39.786;2023-03-03T21:22:16;98452.28;;;1.28;100.00
49627;BME280;35527;54.616;39.786;2023-03-03T21:28:58;98450.47;;;1.33;100.00
49627;BME280;35527;54.616;39.786;2023-03-03T21:32:08;98442.22;;;1.22;100.00
49627;BME280;35527;54.616;39.786;2023-03-03T21:35:19;98446.28;;;1.30;100.00
49627;BME280;35527;54.616;39.786;2023-03-03T21:38:35;98440.09;;;1.41;100.00
49627;BME280;35527;54.616;39.786;2023-03-03T21:45:09;98413.13;;;1.32;100.00
49627;BME280;35527;54.616;39.786;2023-03-03T21:53:11;98443.66;;;1.68;100.00
49627;BME280;35527;54.616;39.786;2023-03-03T21:56:16;98441.38;;;1.57;100.00
49627;BME280;35527;54.616;39.786;2023-03-03T21:59:19;98444.06;;;1.51;100.00
49627;BME280;35527;54.616;39.786;2023-03-03T22:02:25;98433.16;;;1.46;100.00
49627;BME280;35527;54.616;39.786;2023-03-03T22:05:29;98404.59;;;1.33;100.00
49627;BME280;35527;54.616;39.786;2023-03-03T22:08:34;98428.84;;;1.48;100.00
49627;BME280;35527;54.616;39.786;2023-03-03T22:11:37;98440.63;;;1.53;100.00
49627;BME280;35527;54.616;39.786;2023-03-03T22:14:41;98446.47;;;1.57;100.00
49627;BME280;35527;54.616;39.786;2023-03-03T22:17:43;98420.47;;;1.44;100.00
49627;BME280;35527;54.616;39.786;2023-03-03T22:20:53;98373.25;;;1.29;100.00
49627;BME280;35527;54.616;39.786;2023-03-03T22:23:57;98440.44;;;1.61;100.00
49627;BME280;35527;54.616;39.786;2023-03-03T22:27:00;98439.44;;;1.67;100.00
49627;BME280;35527;54.616;39.786;2023-03-03T22:30:03;98415.66;;;1.66;100.00
49627;BME280;35527;54.616;39.786;2023-03-03T22:33:11;98392.75;;;1.65;100.00
49627;BME280;35527;54.616;39.786;2023-03-03T22:36:14;98412.06;;;1.73;100.00
49627;BME280;35527;54.616;39.786;2023-03-03T22:39:17;98420.28;;;1.85;100.00
49627;BME280;35527;54.616;39.786;2023-03-03T22:42:20;98422.31;;;1.72;100.00
49627;BME280;35527;54.616;39.786;2023-03-03T22:45:29;98416.91;;;1.83;100.00
49627;BME280;35527;54.616;39.786;2023-03-03T22:48:32;98421.47;;;1.71;100.00